createdAt,value
2023-10-06T00:00:33.464Z,4.00
2023-10-06T00:03:00.523Z,4.50
2023-10-06T00:05:28.521Z,4.17
2023-10-06T00:07:55.065Z,4.10
2023-10-06T00:10:24.010Z,4.57
2023-10-06T00:12:56.736Z,4.47
2023-10-06T00:15:27.934Z,4.60
2023-10-06T00:17:57.427Z,4.30
2023-10-06T00:20:32.697Z,4.70
2023-10-06T00:23:07.950Z,4.27
2023-10-06T00:25:37.133Z,3.90
2023-10-06T00:28:15.151Z,4.60
2023-10-06T00:30:41.845Z,4.00
2023-10-06T00:33:08.841Z,4.17
2023-10-06T00:35:36.678Z,4.23
2023-10-06T00:38:17.885Z,4.10
2023-10-06T00:40:57.821Z,3.77
2023-10-06T00:43:36.518Z,3.80
2023-10-06T00:46:10.298Z,4.10
2023-10-06T00:48:44.311Z,4.60
2023-10-06T00:51:14.023Z,4.80
2023-10-06T00:53:41.563Z,4.20
2023-10-06T00:56:17.979Z,4.03
2023-10-06T00:58:45.528Z,4.07
2023-10-06T01:01:18.619Z,4.37
2023-10-06T01:03:49.946Z,4.00
2023-10-06T01:06:24.287Z,4.33
2023-10-06T01:09:07.020Z,4.63
2023-10-06T01:11:44.524Z,4.37
2023-10-06T01:14:12.083Z,4.47
2023-10-06T01:16:39.283Z,4.10
2023-10-06T01:19:18.002Z,5.10
2023-10-06T01:21:49.140Z,3.80
2023-10-06T01:24:27.098Z,3.93
2023-10-06T01:27:01.707Z,4.57
2023-10-06T01:29:32.084Z,3.90
2023-10-06T01:31:59.790Z,3.90
2023-10-06T01:34:26.284Z,4.33
2023-10-06T01:36:55.700Z,4.47
2023-10-06T01:39:26.866Z,4.03
2023-10-06T01:41:53.365Z,4.00
2023-10-06T01:44:19.902Z,4.20
2023-10-06T01:46:56.034Z,4.10
2023-10-06T01:49:23.705Z,4.17
2023-10-06T01:52:02.937Z,3.63
2023-10-06T01:54:38.066Z,3.93
2023-10-06T01:57:08.024Z,4.13
2023-10-06T01:59:35.040Z,3.47
2023-10-06T02:02:02.952Z,4.20
2023-10-06T02:04:39.810Z,4.57
2023-10-06T02:07:10.544Z,3.87
2023-10-06T02:09:38.408Z,3.93
2023-10-06T02:12:05.689Z,4.30
2023-10-06T02:14:32.357Z,3.87
2023-10-06T02:17:05.985Z,3.40
2023-10-06T02:19:34.149Z,3.33
2023-10-06T02:22:01.478Z,4.10
2023-10-06T02:24:28.005Z,4.37
2023-10-06T02:27:02.296Z,3.70
2023-10-06T02:29:30.079Z,3.93
2023-10-06T02:32:02.446Z,3.80
2023-10-06T02:34:31.048Z,4.70
2023-10-06T02:36:58.025Z,3.87
2023-10-06T02:39:32.110Z,3.83
2023-10-06T02:41:59.213Z,4.37
2023-10-06T02:44:26.263Z,3.50
2023-10-06T02:46:53.910Z,4.00
2023-10-06T02:49:33.125Z,4.20
2023-10-06T02:52:14.145Z,3.40
2023-10-06T02:54:50.913Z,3.50
2023-10-06T02:57:21.315Z,4.20
2023-10-06T02:59:49.392Z,4.30
2023-10-06T03:02:20.141Z,4.00
2023-10-06T03:04:55.882Z,3.63
2023-10-06T03:07:23.474Z,3.70
2023-10-06T03:09:49.977Z,5.00
2023-10-06T03:12:19.335Z,4.80
2023-10-06T03:14:45.842Z,4.63
2023-10-06T03:17:14.367Z,4.40
2023-10-06T03:19:42.022Z,3.23
2023-10-06T03:22:11.327Z,3.93
2023-10-06T03:24:46.117Z,3.50
2023-10-06T03:27:15.388Z,4.20
2023-10-06T03:29:47.638Z,4.37
2023-10-06T03:32:29.098Z,3.10
2023-10-06T03:34:58.335Z,3.80
2023-10-06T03:37:53.448Z,3.80
2023-10-06T03:40:31.586Z,3.73
2023-10-06T03:43:05.897Z,3.87
2023-10-06T03:45:33.491Z,4.00
2023-10-06T03:48:15.266Z,3.47
2023-10-06T03:50:44.954Z,4.83
2023-10-06T03:53:14.224Z,3.83
2023-10-06T03:55:47.240Z,4.67
2023-10-06T03:58:17.449Z,4.10
2023-10-06T04:00:50.662Z,4.20
2023-10-06T04:03:19.196Z,4.20
2023-10-06T04:05:47.115Z,4.30
2023-10-06T04:08:17.513Z,4.17
2023-10-06T04:10:45.970Z,4.00
2023-10-06T04:13:12.959Z,3.80
2023-10-06T04:15:40.870Z,4.00
2023-10-06T04:18:11.076Z,3.60
2023-10-06T04:20:39.511Z,4.00
2023-10-06T04:23:06.268Z,4.50
2023-10-06T04:25:32.992Z,3.50
2023-10-06T04:27:59.493Z,3.70
2023-10-06T04:30:26.664Z,3.83
2023-10-06T04:32:54.476Z,3.80
2023-10-06T04:35:22.352Z,4.50
2023-10-06T04:37:49.604Z,4.00
2023-10-06T04:40:18.441Z,4.10
2023-10-06T04:42:46.212Z,4.00
2023-10-06T04:45:16.109Z,5.23
2023-10-06T04:47:43.244Z,4.10
2023-10-06T04:50:10.739Z,3.90
2023-10-06T04:52:37.881Z,3.90
2023-10-06T04:55:12.996Z,3.80
2023-10-06T04:57:39.809Z,4.27
2023-10-06T05:00:14.259Z,4.97
2023-10-06T05:02:44.941Z,3.70
2023-10-06T05:05:12.782Z,3.43
2023-10-06T05:07:40.087Z,3.80
2023-10-06T05:10:14.874Z,4.50
2023-10-06T05:12:43.834Z,4.83
2023-10-06T05:15:15.627Z,9.30
2023-10-06T05:17:42.502Z,13.57
2023-10-06T05:20:20.501Z,11.80
2023-10-06T05:22:50.060Z,8.47
2023-10-06T05:25:16.619Z,13.07
2023-10-06T05:27:45.598Z,16.90
2023-10-06T05:30:14.718Z,17.77
2023-10-06T05:32:43.645Z,13.83
2023-10-06T05:35:11.732Z,8.27
2023-10-06T05:37:38.301Z,6.20
2023-10-06T05:40:05.457Z,5.43
2023-10-06T05:42:34.264Z,4.90
2023-10-06T05:45:13.772Z,5.90
2023-10-06T05:47:41.755Z,6.67
2023-10-06T05:50:10.003Z,5.67
2023-10-06T05:52:40.476Z,6.50
2023-10-06T05:55:11.048Z,5.00
2023-10-06T05:57:40.402Z,5.13
2023-10-06T06:00:09.881Z,4.80
2023-10-06T06:02:38.555Z,4.97
2023-10-06T06:05:05.661Z,4.47
2023-10-06T06:07:35.488Z,5.40
2023-10-06T06:10:05.383Z,4.37
2023-10-06T06:12:31.914Z,4.97
2023-10-06T06:14:58.359Z,5.40
2023-10-06T06:17:25.019Z,6.60
2023-10-06T06:19:54.668Z,4.60
2023-10-06T06:22:23.183Z,4.67
2023-10-06T06:24:50.909Z,5.17
2023-10-06T06:27:17.440Z,5.40
2023-10-06T06:29:47.473Z,4.80
2023-10-06T06:32:15.273Z,5.20
2023-10-06T06:34:42.978Z,4.67
2023-10-06T06:37:14.291Z,5.23
2023-10-06T06:39:45.345Z,4.83
2023-10-06T06:42:13.175Z,5.37
2023-10-06T06:44:40.984Z,5.00
2023-10-06T06:47:07.624Z,4.40
2023-10-06T06:49:34.212Z,5.80
2023-10-06T06:52:00.710Z,4.77
2023-10-06T06:54:27.218Z,4.37
2023-10-06T06:56:54.591Z,5.43
2023-10-06T06:59:21.198Z,5.17
2023-10-06T07:01:49.108Z,5.50
2023-10-06T07:04:15.576Z,7.13
2023-10-06T07:06:42.022Z,4.60
2023-10-06T07:09:14.019Z,5.50
2023-10-06T07:11:43.517Z,5.43
2023-10-06T07:14:11.101Z,5.10
2023-10-06T07:16:37.997Z,5.20
2023-10-06T07:19:04.950Z,4.50
2023-10-06T07:21:31.629Z,4.97
2023-10-06T07:24:00.988Z,5.60
2023-10-06T07:26:27.710Z,4.90
2023-10-06T07:28:55.091Z,5.00
2023-10-06T07:31:21.815Z,5.07
2023-10-06T07:33:48.556Z,4.27
2023-10-06T07:36:18.928Z,4.67
2023-10-06T07:38:46.120Z,6.63
2023-10-06T07:41:26.366Z,6.80
2023-10-06T07:43:53.273Z,7.50
2023-10-06T07:46:20.463Z,6.90
2023-10-06T07:48:47.320Z,6.33
2023-10-06T07:51:14.527Z,5.97
2023-10-06T07:53:41.132Z,5.47
2023-10-06T07:56:07.846Z,4.77
2023-10-06T07:58:45.034Z,5.20
2023-10-06T08:01:14.085Z,5.33
2023-10-06T08:03:42.426Z,5.50
2023-10-06T08:06:11.936Z,5.30
2023-10-06T08:08:39.597Z,5.13
2023-10-06T08:11:07.421Z,5.20
2023-10-06T08:13:34.742Z,5.93
2023-10-06T08:16:02.282Z,5.20
2023-10-06T08:18:30.912Z,5.10
2023-10-06T08:21:00.406Z,5.40
2023-10-06T08:23:27.354Z,4.63
2023-10-06T08:26:00.695Z,5.33
2023-10-06T08:28:28.045Z,4.90
2023-10-06T08:30:54.819Z,6.50
2023-10-06T08:33:21.546Z,5.70
2023-10-06T08:35:56.330Z,5.50
2023-10-06T08:38:22.886Z,5.10
2023-10-06T08:40:53.812Z,5.90
2023-10-06T08:43:27.566Z,4.83
2023-10-06T08:45:56.725Z,5.50
2023-10-06T08:48:28.278Z,4.90
2023-10-06T08:50:56.841Z,5.27
2023-10-06T08:53:24.866Z,4.90
2023-10-06T08:55:51.498Z,4.70
2023-10-06T08:58:18.950Z,5.47
2023-10-06T09:00:45.671Z,5.00
2023-10-06T09:03:15.905Z,5.03
2023-10-06T09:05:43.621Z,5.03
2023-10-06T09:08:16.187Z,6.07
2023-10-06T09:10:51.269Z,5.27
2023-10-06T09:13:22.969Z,4.57
2023-10-06T09:16:03.879Z,5.60
2023-10-06T09:18:35.463Z,6.00
2023-10-06T09:21:21.225Z,5.70
2023-10-06T09:23:48.981Z,4.67
2023-10-06T09:26:27.818Z,4.70
2023-10-06T09:29:03.812Z,4.47
2023-10-06T09:31:36.464Z,4.53
2023-10-06T09:34:03.390Z,5.27
2023-10-06T09:36:43.474Z,4.43
2023-10-06T09:39:20.957Z,4.87
2023-10-06T09:41:49.970Z,4.83
2023-10-06T09:44:20.082Z,4.07
2023-10-06T09:46:49.114Z,4.33
2023-10-06T09:49:19.395Z,4.60
2023-10-06T09:51:47.150Z,4.13
2023-10-06T09:54:15.925Z,4.30
2023-10-06T09:56:42.856Z,4.10
2023-10-06T09:59:13.871Z,3.40
2023-10-06T10:01:46.757Z,3.80
2023-10-06T10:04:15.128Z,4.20
2023-10-06T10:06:46.422Z,4.10
2023-10-06T10:09:18.027Z,4.53
2023-10-06T10:12:09.378Z,3.90
2023-10-06T10:15:13.124Z,4.13
2023-10-06T10:18:26.143Z,3.27
2023-10-06T10:20:53.677Z,3.73
2023-10-06T10:23:21.459Z,4.50
2023-10-06T10:25:48.310Z,4.00
2023-10-06T10:28:16.498Z,3.87
2023-10-06T10:31:00.919Z,3.90
2023-10-06T10:33:32.031Z,3.73
2023-10-06T10:36:13.953Z,3.23
2023-10-06T10:38:41.769Z,4.50
2023-10-06T10:41:09.204Z,3.40
2023-10-06T10:43:39.725Z,3.97
2023-10-06T10:46:07.819Z,3.70
2023-10-06T10:48:38.288Z,3.93
2023-10-06T10:51:12.149Z,3.63
2023-10-06T10:53:43.197Z,3.13
2023-10-06T10:56:29.003Z,3.70
2023-10-06T10:58:56.497Z,3.67
2023-10-06T11:01:27.599Z,4.57
2023-10-06T11:04:26.104Z,3.90
2023-10-06T11:06:56.518Z,3.63
2023-10-06T11:09:30.850Z,3.50
2023-10-06T11:12:23.572Z,3.40
2023-10-06T11:14:51.393Z,2.87
2023-10-06T11:17:36.254Z,2.87
2023-10-06T11:20:14.639Z,3.40
2023-10-06T11:22:52.179Z,3.67
2023-10-06T11:25:19.725Z,4.20
2023-10-06T11:28:04.937Z,3.40
2023-10-06T11:30:37.757Z,2.73
2023-10-06T11:33:06.712Z,3.40
2023-10-06T11:35:38.214Z,4.20
2023-10-06T11:38:12.363Z,3.37
2023-10-06T11:40:41.599Z,2.87
2023-10-06T11:43:16.407Z,3.57
2023-10-06T11:45:44.317Z,3.07
2023-10-06T11:48:31.017Z,3.27
2023-10-06T11:51:02.796Z,3.53
2023-10-06T11:53:29.596Z,4.00
2023-10-06T11:56:08.162Z,3.17
2023-10-06T11:58:37.411Z,3.10
2023-10-06T12:01:05.998Z,2.90
2023-10-06T12:03:40.760Z,2.90
2023-10-06T12:06:13.112Z,3.77
2023-10-06T12:08:46.965Z,3.23
2023-10-06T12:11:14.360Z,3.27
2023-10-06T12:13:41.241Z,3.73
2023-10-06T12:16:15.035Z,4.37
2023-10-06T12:18:45.280Z,3.33
2023-10-06T12:21:15.680Z,3.40
2023-10-06T12:23:43.380Z,3.13
2023-10-06T12:26:10.181Z,3.83
2023-10-06T12:28:36.809Z,3.60
2023-10-06T12:31:03.934Z,3.37
2023-10-06T12:33:30.693Z,3.97
2023-10-06T12:35:57.342Z,3.53
2023-10-06T12:38:24.049Z,3.90
2023-10-06T12:40:50.677Z,3.63
2023-10-06T12:43:20.027Z,3.13
2023-10-06T12:45:47.275Z,3.60
2023-10-06T12:48:14.387Z,4.27
2023-10-06T12:50:44.609Z,4.50
2023-10-06T12:53:12.840Z,3.73
2023-10-06T12:55:43.210Z,4.33
2023-10-06T12:58:15.642Z,4.00
2023-10-06T13:00:42.671Z,3.97
2023-10-06T13:03:18.510Z,3.60
2023-10-06T13:05:49.040Z,3.60
2023-10-06T13:08:22.541Z,4.90
2023-10-06T13:10:49.715Z,3.43
2023-10-06T13:13:19.094Z,4.53
2023-10-06T13:15:46.649Z,4.10
2023-10-06T13:18:14.150Z,3.90
2023-10-06T13:20:41.785Z,3.60
2023-10-06T13:23:08.822Z,3.63
2023-10-06T13:25:38.455Z,4.47
2023-10-06T13:28:05.844Z,3.63
2023-10-06T13:30:34.180Z,4.00
2023-10-06T13:33:00.926Z,3.87
2023-10-06T13:35:28.232Z,3.57
2023-10-06T13:37:55.123Z,4.20
2023-10-06T13:40:22.133Z,4.00
2023-10-06T13:42:49.851Z,4.13
2023-10-06T13:45:19.416Z,3.53
2023-10-06T13:47:48.472Z,4.33
2023-10-06T13:50:15.593Z,3.50
2023-10-06T13:52:43.148Z,4.17
2023-10-06T13:55:13.971Z,3.70
2023-10-06T13:57:42.028Z,3.70
2023-10-06T14:00:20.822Z,3.87
2023-10-06T14:02:50.658Z,3.50
2023-10-06T14:05:17.811Z,4.70
2023-10-06T14:07:45.825Z,3.57
2023-10-06T14:10:17.452Z,4.00
2023-10-06T14:12:50.102Z,3.80
2023-10-06T14:15:31.566Z,4.10
2023-10-06T14:17:59.840Z,5.00
2023-10-06T14:20:31.126Z,4.67
2023-10-06T14:22:58.342Z,4.40
2023-10-06T14:25:27.956Z,3.90
2023-10-06T14:27:56.004Z,3.57
2023-10-06T14:30:29.290Z,3.77
2023-10-06T14:33:10.919Z,4.97
2023-10-06T14:35:54.451Z,3.70
2023-10-06T14:38:34.064Z,3.83
2023-10-06T14:41:20.965Z,3.77
2023-10-06T14:44:07.453Z,3.47
2023-10-06T14:46:35.261Z,4.90
2023-10-06T14:49:04.588Z,4.70
2023-10-06T14:51:31.708Z,4.33
2023-10-06T14:54:01.385Z,3.80
2023-10-06T14:56:28.323Z,4.20
2023-10-06T14:58:58.589Z,3.77
2023-10-06T15:01:26.863Z,4.00
2023-10-06T15:03:53.787Z,5.03
2023-10-06T15:06:21.605Z,3.90
2023-10-06T15:08:51.044Z,4.20
2023-10-06T15:11:18.376Z,3.83
2023-10-06T15:13:48.141Z,3.40
2023-10-06T15:16:17.278Z,4.80
2023-10-06T15:18:47.300Z,4.10
2023-10-06T15:24:05.490Z,3.70
2023-10-06T15:26:32.020Z,4.27
2023-10-06T15:28:58.610Z,4.23
2023-10-06T15:31:28.009Z,4.43
2023-10-06T15:33:54.516Z,4.83
2023-10-06T15:36:21.121Z,4.70
2023-10-06T15:38:47.719Z,4.17
2023-10-06T15:41:16.944Z,3.70
2023-10-06T15:43:48.128Z,3.63
2023-10-06T15:46:16.427Z,4.07
2023-10-06T15:48:43.401Z,4.40
2023-10-06T15:51:12.536Z,4.40
2023-10-06T15:53:43.972Z,3.73
2023-10-06T15:56:14.985Z,4.00
2023-10-06T15:58:42.619Z,3.87
2023-10-06T16:01:10.475Z,3.67
2023-10-06T16:03:39.832Z,4.10
2023-10-06T16:06:07.147Z,4.80
2023-10-06T16:08:33.771Z,4.03
2023-10-06T16:11:08.406Z,4.20
2023-10-06T16:13:45.247Z,4.07
2023-10-06T16:16:17.010Z,3.80
2023-10-06T16:18:46.565Z,4.30
2023-10-06T16:21:14.988Z,4.47
2023-10-06T16:23:43.250Z,4.60
2023-10-06T16:26:11.089Z,4.20
2023-10-06T16:28:40.142Z,4.60
2023-10-06T16:31:10.456Z,4.23
2023-10-06T16:33:37.810Z,4.60
2023-10-06T16:36:08.252Z,4.93
2023-10-06T16:38:34.892Z,5.70
2023-10-06T16:41:02.051Z,5.63
2023-10-06T16:43:35.846Z,4.10
2023-10-06T16:46:07.201Z,4.03
2023-10-06T16:48:38.973Z,3.50
2023-10-06T16:51:09.404Z,3.80
2023-10-06T16:53:37.226Z,3.77
2023-10-06T16:56:06.007Z,4.33
2023-10-06T16:58:32.795Z,5.27
2023-10-06T17:01:05.666Z,4.63
2023-10-06T17:03:33.320Z,4.33
2023-10-06T17:06:00.666Z,4.63
2023-10-06T17:08:27.317Z,4.30
2023-10-06T17:10:53.919Z,4.73
2023-10-06T17:13:23.535Z,5.00
2023-10-06T17:15:50.395Z,4.87
2023-10-06T17:18:17.203Z,4.60
2023-10-06T17:20:45.239Z,4.90
2023-10-06T17:23:12.720Z,5.00
2023-10-06T17:25:40.474Z,5.17
2023-10-06T17:28:08.638Z,4.53
2023-10-06T17:30:37.342Z,4.40
2023-10-06T17:33:08.186Z,5.50
2023-10-06T17:35:35.545Z,4.23
2023-10-06T17:38:02.359Z,4.80
2023-10-06T17:40:30.195Z,4.93
2023-10-06T17:42:56.696Z,5.00
2023-10-06T17:45:26.550Z,4.13
2023-10-06T17:47:56.265Z,3.97
2023-10-06T17:50:23.985Z,4.50
2023-10-06T17:52:50.654Z,4.40
2023-10-06T17:55:17.246Z,4.60
2023-10-06T17:57:43.790Z,3.57
2023-10-06T18:00:12.194Z,4.90
2023-10-06T18:02:39.876Z,5.23
2023-10-06T18:05:09.721Z,4.43
2023-10-06T18:07:37.067Z,4.47
2023-10-06T18:10:09.308Z,3.90
2023-10-06T18:12:37.953Z,4.93
2023-10-06T18:15:06.524Z,5.20
2023-10-06T18:17:33.472Z,4.10
2023-10-06T18:20:00.058Z,4.60
2023-10-06T18:22:28.288Z,4.67
2023-10-06T18:24:54.909Z,5.60
2023-10-06T18:27:22.201Z,4.63
2023-10-06T18:29:48.704Z,4.87
2023-10-06T18:32:15.598Z,4.20
2023-10-06T18:34:43.134Z,4.33
2023-10-06T18:37:09.756Z,4.60
2023-10-06T18:39:36.629Z,4.77
2023-10-06T18:42:03.205Z,4.10
2023-10-06T18:44:29.718Z,4.87
2023-10-06T18:46:56.370Z,4.57
2023-10-06T18:49:23.450Z,4.53
2023-10-06T18:51:50.058Z,5.43
2023-10-06T18:54:16.616Z,4.83
2023-10-06T18:56:43.260Z,4.53
2023-10-06T18:59:09.910Z,4.70
2023-10-06T19:01:36.732Z,4.83
2023-10-06T19:04:10.705Z,4.83
2023-10-06T19:06:41.459Z,4.80
2023-10-06T19:09:11.116Z,4.73
2023-10-06T19:11:37.979Z,5.13
2023-10-06T19:14:05.989Z,4.90
2023-10-06T19:16:33.272Z,4.80
2023-10-06T19:19:01.091Z,4.67
2023-10-06T19:21:28.167Z,5.23
2023-10-06T19:23:55.589Z,5.73
2023-10-06T19:26:23.472Z,5.30
2023-10-06T19:28:50.505Z,5.47
2023-10-06T19:31:17.518Z,5.83
2023-10-06T19:33:48.381Z,5.40
2023-10-06T19:36:15.290Z,5.00
2023-10-06T19:38:44.680Z,4.80
2023-10-06T19:41:12.229Z,5.47
2023-10-06T19:43:38.892Z,4.70
2023-10-06T19:46:10.826Z,4.93
2023-10-06T19:48:39.335Z,5.03
2023-10-06T19:51:07.767Z,4.10
2023-10-06T19:53:37.626Z,4.43
2023-10-06T19:56:04.809Z,4.20
2023-10-06T19:58:32.372Z,4.20
2023-10-06T20:00:59.705Z,4.30
2023-10-06T20:03:26.979Z,4.20
2023-10-06T20:05:57.628Z,4.47
2023-10-06T20:08:25.031Z,4.37
2023-10-06T20:10:53.884Z,3.70
2023-10-06T20:13:21.082Z,3.90
2023-10-06T20:15:47.670Z,4.17
2023-10-06T20:18:15.873Z,4.40
2023-10-06T20:20:43.507Z,4.33
2023-10-06T20:23:10.021Z,4.60
2023-10-06T20:25:36.521Z,4.40
2023-10-06T20:28:04.136Z,4.73
2023-10-06T20:30:31.596Z,5.10
2023-10-06T20:32:58.365Z,4.83
2023-10-06T20:35:28.796Z,4.50
2023-10-06T20:37:59.599Z,5.20
2023-10-06T20:40:26.626Z,4.70
2023-10-06T20:42:57.183Z,5.23
2023-10-06T20:45:27.784Z,4.30
2023-10-06T20:47:59.099Z,4.63
2023-10-06T20:50:26.583Z,4.27
2023-10-06T20:52:54.418Z,4.60
2023-10-06T20:55:22.104Z,4.90
2023-10-06T20:57:49.789Z,4.50
2023-10-06T21:00:22.463Z,4.30
2023-10-06T21:02:49.222Z,4.77
2023-10-06T21:05:20.490Z,4.60
2023-10-06T21:07:47.176Z,5.33
2023-10-06T21:10:14.577Z,4.47
2023-10-06T21:12:45.990Z,4.60
2023-10-06T21:15:15.175Z,4.83
2023-10-06T21:17:48.185Z,4.27
2023-10-06T21:20:16.412Z,4.73
2023-10-06T21:22:43.413Z,4.90
2023-10-06T21:25:13.753Z,5.30
2023-10-06T21:27:41.114Z,5.60
2023-10-06T21:30:09.006Z,4.60
2023-10-06T21:32:38.465Z,5.13
2023-10-06T21:35:08.476Z,5.13
2023-10-06T21:37:35.293Z,4.73
2023-10-06T21:40:02.638Z,5.50
2023-10-06T21:42:29.734Z,4.10
2023-10-06T21:44:56.611Z,4.97
2023-10-06T21:47:23.830Z,4.40
2023-10-06T21:49:50.412Z,4.10
2023-10-06T21:52:17.034Z,5.83
2023-10-06T21:54:43.856Z,5.73
2023-10-06T21:57:13.677Z,7.60
2023-10-06T21:59:42.216Z,5.87
2023-10-06T22:02:09.106Z,5.43
2023-10-06T22:04:35.909Z,5.10
2023-10-06T22:07:02.567Z,5.10
2023-10-06T22:09:29.822Z,5.60
2023-10-06T22:11:56.689Z,6.13
2023-10-06T22:14:23.299Z,4.63
2023-10-06T22:16:51.518Z,6.00
2023-10-06T22:19:18.154Z,5.73
2023-10-06T22:21:45.022Z,4.97
2023-10-06T22:24:15.073Z,5.33
2023-10-06T22:26:41.686Z,5.53
2023-10-06T22:29:08.203Z,5.83
2023-10-06T22:31:34.874Z,5.80
2023-10-06T22:34:01.452Z,4.80
2023-10-06T22:36:28.728Z,5.23
2023-10-06T22:38:55.603Z,5.10
2023-10-06T22:41:22.102Z,5.03
2023-10-06T22:43:48.791Z,5.27
2023-10-06T22:46:16.008Z,4.83
2023-10-06T22:48:44.602Z,5.60
2023-10-06T22:51:12.981Z,7.43
2023-10-06T22:53:42.393Z,11.67
2023-10-06T22:56:09.287Z,6.30
2023-10-06T22:58:37.467Z,4.30
2023-10-06T23:01:04.170Z,4.70
2023-10-06T23:03:31.598Z,4.70
2023-10-06T23:06:00.387Z,4.40
2023-10-06T23:08:28.801Z,4.47
2023-10-06T23:10:55.415Z,4.80
2023-10-06T23:13:22.489Z,4.63
2023-10-06T23:15:49.089Z,4.47
2023-10-06T23:18:18.165Z,5.03
2023-10-06T23:20:47.513Z,4.70
2023-10-06T23:23:14.320Z,5.07
2023-10-06T23:25:47.463Z,5.50
2023-10-06T23:28:14.585Z,4.80
2023-10-06T23:30:41.131Z,5.00
2023-10-06T23:33:08.092Z,4.37
2023-10-06T23:35:35.266Z,4.97
2023-10-06T23:38:07.385Z,5.03
2023-10-06T23:40:39.429Z,5.33
2023-10-06T23:43:09.829Z,4.53
2023-10-06T23:45:38.174Z,4.77
2023-10-06T23:48:11.215Z,4.90
2023-10-06T23:50:42.514Z,5.33
2023-10-06T23:53:10.388Z,5.00
2023-10-06T23:55:43.369Z,4.30
2023-10-06T23:58:17.706Z,5.83
